Wednesday, October 17, 2018, 12:08 PM EDT
Back to Local

KIJD, Willimantic Windham Airport

Location: North Windham, CT, United States Lat: 41.75
Local Time: 12:08 PM EDT (16:08 GMT) Lon: -72.183
Time Zone: US/Eastern Elev: 246 ft

Show me the last for .
Show Coded

Time T Td Feel RH Dir Speed Gust Alt SLP Vis Weather Sky Remarks
2018-10-17 11:52 57 40 - 52 270° 8 18 29.86 29.86 10 CLR None
2018-10-17 10:52 53 39 - 58 270° 8 - 29.90 29.90 10 CLR None
2018-10-17 09:52 49 40 46 70 Variable 7 - 29.92 29.92 10 CLR None
2018-10-17 09:02 39 39 - 100 - Calm - 29.94 - 10 SCT002 None
2018-10-17 08:52 37 37 - 100 - Calm - 29.94 29.94 5 BR BKN002 None
2018-10-17 08:34 35 35 - 100 - Calm - 29.94 - 1 BR OVC001 Variable visibility
2018-10-17 07:52 34 34 - 100 - Calm - 29.94 29.94 0 FG VV001 6-hr Min Temp (8am): 34.0°F
6-hr Max Temp (8am): 37.9°F
2018-10-17 07:50 34 34 - 100 - Calm - 29.94 - 0 FG VV001 None
2018-10-17 06:52 34 34 - 100 - Calm - 29.95 29.96 0 FG VV002 None
2018-10-17 05:52 35 35 - 100 - Calm - 29.96 29.96 0 FG VV002 None
2018-10-17 05:50 36 36 - 100 - Calm - 29.96 - 0 FG VV002 None
2018-10-17 05:11 35 35 - 100 - Calm - 29.98 - 0 FG VV001 None
2018-10-17 05:00 35 35 - 100 - Calm - 29.97 - 0 FG VV002 None
2018-10-17 04:52 35 35 - 100 - Calm - 29.97 29.98 0 FG VV001 None
2018-10-17 04:44 35 35 - 100 - Calm - 29.97 - 0 BR VV001 None
2018-10-17 04:38 35 35 - 100 - Calm - 29.97 - 1 BR BKN001 None
2018-10-17 04:21 34 34 31 100 50° 3 - 29.98 - 10 SCT001 None
2018-10-17 04:14 35 35 - 100 - Calm - 29.98 - 2 BR BKN001 None
2018-10-17 04:10 35 35 - 100 - Calm - 29.98 - 0 BR OVC001 None
2018-10-17 04:02 36 36 - 100 - Calm - 29.98 - 1 BR OVC001 None
2018-10-17 03:52 36 36 - 100 - Calm - 29.98 29.98 9 BKN001 None
2018-10-17 03:41 36 36 - 100 - Calm - 29.99 - 10 BKN001 None
2018-10-17 03:37 36 36 - 100 - Calm - 29.99 - 10 SCT002 None
2018-10-17 02:52 37 37 - 100 - Calm - 30.00 30.01 10 CLR None
2018-10-17 01:52 38 38 - 100 - Calm - 30.02 30.02 10 CLR 6-hr Min Temp (2am): 37.0°F
6-hr Max Temp (2am): 46.9°F
2018-10-16 23:52 41 40 - 95 - Calm - 30.03 30.03 10 CLR None
2018-10-16 22:52 41 39 - 92 - Calm - 30.04 30.04 10 CLR None
2018-10-16 21:52 45 38 - 76 - Calm - 30.04 30.04 10 CLR None
2018-10-16 20:52 45 39 44 79 220° 3 - 30.05 30.06 10 CLR None
2018-10-16 19:52 45 40 - 82 - Calm - 30.04 30.04 10 CLR 6-hr Min Temp (8pm): 44.1°F
6-hr Max Temp (8pm): 55.9°F
2018-10-16 18:52 46 41 - 82 - Calm - 30.03 30.03 10 CLR None
2018-10-16 17:52 52 37 - 56 230° 3 - 30.01 30.01 10 CLR None
2018-10-16 16:52 54 36 - 50 270° 6 - 30.01 30.01 10 CLR None
2018-10-16 15:52 55 35 - 46 300° 8 - 30.02 30.02 10 CLR None
2018-10-16 14:52 55 35 - 46 250° 10 - 30.03 30.02 10 CLR None
2018-10-16 13:52 55 35 - 46 280° 9 - 30.04 30.03 10 CLR 6-hr Min Temp (2pm): 44.1°F
6-hr Max Temp (2pm): 55.0°F
2018-10-16 12:52 53 33 - 46 300° 13 18 30.06 30.06 10 CLR None

Support USWX by starting your Amazon purchase here.